Bovril, Argentina
Current Conditions -  °F | °C
As of 12:00 PM on Tuesday 21 Oct 2014 (Local Time) from SUSO Reporting Station
Clear Clear  
Wind Chill: 25°   Ceiling: Unl
Heat Index: 26°   Visibility: 6mi
Dew Point: 12°   Wind: 10mph
Humidity: 44%   Direction: 70°ENE
Pressure: 30.12"   Gusts: NA
Location:  31.35°S, 59.43°W
Report Text: SUSO 211500Z 07009KT CAVOK 25/12 Q1020
Loading
Personal Weather Stations






























Interactive Weather Map
Tropical Storm Tracking
New forecast layout! Learn more

10-Day Weather Forecast

Advertisements
Track Severe Weather on mobile